sensor_id;sensor_type;location;lat;lon;timestamp;pressure;altitude;pressure_sealevel;temperature;humidity
13033;BME280;6583;42.632;23.298;2023-02-08T00:00:32;73546.38;;;-146.40;67.06
13033;BME280;6583;42.632;23.298;2023-02-08T00:02:58;73554.47;;;-146.40;66.33
13033;BME280;6583;42.632;23.298;2023-02-08T00:05:26;73558.50;;;-146.40;66.56
13033;BME280;6583;42.632;23.298;2023-02-08T00:07:53;73554.47;;;-146.40;67.43
13033;BME280;6583;42.632;23.298;2023-02-08T00:10:19;73546.38;;;-146.40;67.40
13033;BME280;6583;42.632;23.298;2023-02-08T00:12:46;73552.44;;;-146.40;66.57
13033;BME280;6583;42.632;23.298;2023-02-08T00:15:13;73544.34;;;-146.40;67.44
13033;BME280;6583;42.632;23.298;2023-02-08T00:17:40;73550.41;;;-146.40;67.73
13033;BME280;6583;42.632;23.298;2023-02-08T00:20:07;73550.41;;;-146.40;67.63
13033;BME280;6583;42.632;23.298;2023-02-08T00:22:35;73548.38;;;-146.40;67.11
13033;BME280;6583;42.632;23.298;2023-02-08T00:25:03;73550.41;;;-146.40;66.73
13033;BME280;6583;42.632;23.298;2023-02-08T00:27:30;73574.72;;;-146.40;65.45
13033;BME280;6583;42.632;23.298;2023-02-08T00:29:57;73578.75;;;-146.40;65.67
13033;BME280;6583;42.632;23.298;2023-02-08T00:32:24;73570.66;;;-146.40;66.27
13033;BME280;6583;42.632;23.298;2023-02-08T00:34:50;73570.66;;;-146.40;67.61
13033;BME280;6583;42.632;23.298;2023-02-08T00:37:17;73578.75;;;-146.40;65.69
13033;BME280;6583;42.632;23.298;2023-02-08T00:39:45;73580.78;;;-146.40;67.08
13033;BME280;6583;42.632;23.298;2023-02-08T00:42:12;73586.88;;;-146.40;66.01
13033;BME280;6583;42.632;23.298;2023-02-08T00:44:38;73594.97;;;-146.40;65.95
13033;BME280;6583;42.632;23.298;2023-02-08T00:47:05;73603.06;;;-146.40;66.06
13033;BME280;6583;42.632;23.298;2023-02-08T00:49:32;73586.88;;;-146.40;66.18
13033;BME280;6583;42.632;23.298;2023-02-08T00:51:58;73576.75;;;-146.40;65.73
13033;BME280;6583;42.632;23.298;2023-02-08T00:54:25;73590.91;;;-146.40;66.00
13033;BME280;6583;42.632;23.298;2023-02-08T00:56:53;73580.78;;;-146.40;65.62
13033;BME280;6583;42.632;23.298;2023-02-08T00:59:19;73582.81;;;-146.40;65.22
13033;BME280;6583;42.632;23.298;2023-02-08T01:01:46;73582.81;;;-146.40;66.54
13033;BME280;6583;42.632;23.298;2023-02-08T01:04:13;73578.75;;;-146.40;66.57
13033;BME280;6583;42.632;23.298;2023-02-08T01:06:39;73558.50;;;-146.40;67.43
13033;BME280;6583;42.632;23.298;2023-02-08T01:09:06;73562.56;;;-146.40;66.95
13033;BME280;6583;42.632;23.298;2023-02-08T01:11:33;73568.63;;;-146.40;66.48
13033;BME280;6583;42.632;23.298;2023-02-08T01:14:01;73568.63;;;-146.40;65.88
13033;BME280;6583;42.632;23.298;2023-02-08T01:16:29;73580.78;;;-146.40;66.70
13033;BME280;6583;42.632;23.298;2023-02-08T01:18:57;73576.75;;;-146.40;66.50
13033;BME280;6583;42.632;23.298;2023-02-08T01:21:26;73590.91;;;-146.40;66.70
13033;BME280;6583;42.632;23.298;2023-02-08T01:23:53;73582.81;;;-146.40;67.33
13033;BME280;6583;42.632;23.298;2023-02-08T01:26:21;73578.75;;;-146.40;67.93
13033;BME280;6583;42.632;23.298;2023-02-08T01:28:49;73582.81;;;-146.40;67.87
13033;BME280;6583;42.632;23.298;2023-02-08T01:31:19;73570.66;;;-146.40;68.21
13033;BME280;6583;42.632;23.298;2023-02-08T01:33:46;73566.63;;;-146.40;67.95
13033;BME280;6583;42.632;23.298;2023-02-08T01:36:13;73554.47;;;-146.40;68.53
13033;BME280;6583;42.632;23.298;2023-02-08T01:38:41;73556.50;;;-146.40;68.26
13033;BME280;6583;42.632;23.298;2023-02-08T01:41:13;73550.41;;;-146.40;68.40
13033;BME280;6583;42.632;23.298;2023-02-08T01:46:56;73530.16;;;-146.40;68.44
13033;BME280;6583;42.632;23.298;2023-02-08T01:49:25;73532.19;;;-146.40;67.61
13033;BME280;6583;42.632;23.298;2023-02-08T01:51:56;73538.25;;;-146.40;66.84
13033;BME280;6583;42.632;23.298;2023-02-08T01:54:27;73530.16;;;-146.40;67.21
13033;BME280;6583;42.632;23.298;2023-02-08T01:56:55;73550.41;;;-146.40;67.72
13033;BME280;6583;42.632;23.298;2023-02-08T01:59:24;73542.31;;;-146.40;68.63
13033;BME280;6583;42.632;23.298;2023-02-08T02:01:53;73538.25;;;-146.40;68.15
13033;BME280;6583;42.632;23.298;2023-02-08T02:04:24;73548.38;;;-146.40;67.76
13033;BME280;6583;42.632;23.298;2023-02-08T02:06:54;73556.50;;;-146.40;66.93
13033;BME280;6583;42.632;23.298;2023-02-08T02:09:27;73550.41;;;-146.40;67.46
13033;BME280;6583;42.632;23.298;2023-02-08T02:11:58;73558.50;;;-146.40;67.64
13033;BME280;6583;42.632;23.298;2023-02-08T02:14:25;73554.47;;;-146.40;68.57
13033;BME280;6583;42.632;23.298;2023-02-08T02:16:51;73552.44;;;-146.40;67.78
13033;BME280;6583;42.632;23.298;2023-02-08T02:19:25;73566.63;;;-146.40;67.65
13033;BME280;6583;42.632;23.298;2023-02-08T02:22:04;73566.63;;;-146.40;68.34
13033;BME280;6583;42.632;23.298;2023-02-08T02:24:57;73574.72;;;-146.40;68.05
13033;BME280;6583;42.632;23.298;2023-02-08T02:30:55;73570.66;;;-146.40;69.52
13033;BME280;6583;42.632;23.298;2023-02-08T02:33:36;73576.75;;;-146.40;69.25
13033;BME280;6583;42.632;23.298;2023-02-08T02:36:14;73560.53;;;-146.40;69.60
13033;BME280;6583;42.632;23.298;2023-02-08T02:38:52;73554.47;;;-146.40;70.06
13033;BME280;6583;42.632;23.298;2023-02-08T02:41:31;73576.75;;;-146.40;68.54
13033;BME280;6583;42.632;23.298;2023-02-08T02:44:22;73566.63;;;-146.40;69.58
13033;BME280;6583;42.632;23.298;2023-02-08T02:46:57;73566.63;;;-146.40;69.76
13033;BME280;6583;42.632;23.298;2023-02-08T02:49:32;73570.66;;;-146.40;70.46
13033;BME280;6583;42.632;23.298;2023-02-08T02:52:06;73570.66;;;-146.40;69.64
13033;BME280;6583;42.632;23.298;2023-02-08T02:54:39;73570.66;;;-146.40;69.51
13033;BME280;6583;42.632;23.298;2023-02-08T02:57:09;73562.56;;;-146.40;69.46
13033;BME280;6583;42.632;23.298;2023-02-08T02:59:38;73554.47;;;-146.40;69.29
13033;BME280;6583;42.632;23.298;2023-02-08T03:02:05;73548.38;;;-146.40;69.24
13033;BME280;6583;42.632;23.298;2023-02-08T03:04:50;73546.38;;;-146.40;70.08
13033;BME280;6583;42.632;23.298;2023-02-08T03:07:31;73550.41;;;-146.40;69.85
13033;BME280;6583;42.632;23.298;2023-02-08T03:10:09;73550.41;;;-146.40;69.65
13033;BME280;6583;42.632;23.298;2023-02-08T03:12:48;73550.41;;;-146.40;69.86
13033;BME280;6583;42.632;23.298;2023-02-08T03:15:25;73558.50;;;-146.40;69.87
13033;BME280;6583;42.632;23.298;2023-02-08T03:18:03;73562.56;;;-146.40;69.56
13033;BME280;6583;42.632;23.298;2023-02-08T03:20:37;73562.56;;;-146.40;69.37
13033;BME280;6583;42.632;23.298;2023-02-08T03:23:08;73560.53;;;-146.40;69.96
13033;BME280;6583;42.632;23.298;2023-02-08T03:25:47;73568.63;;;-146.40;69.88
13033;BME280;6583;42.632;23.298;2023-02-08T03:28:20;73558.50;;;-146.40;69.97
13033;BME280;6583;42.632;23.298;2023-02-08T03:30:54;73546.38;;;-146.40;69.54
13033;BME280;6583;42.632;23.298;2023-02-08T03:33:29;73538.25;;;-146.40;68.79
13033;BME280;6583;42.632;23.298;2023-02-08T03:36:02;73538.25;;;-146.40;68.77
13033;BME280;6583;42.632;23.298;2023-02-08T03:38:32;73546.38;;;-146.40;68.43
13033;BME280;6583;42.632;23.298;2023-02-08T03:41:03;73542.31;;;-146.40;67.75
13033;BME280;6583;42.632;23.298;2023-02-08T03:43:35;73554.47;;;-146.40;66.67
13033;BME280;6583;42.632;23.298;2023-02-08T03:46:06;73546.38;;;-146.40;66.58
13033;BME280;6583;42.632;23.298;2023-02-08T03:48:37;73558.50;;;-146.40;66.22
13033;BME280;6583;42.632;23.298;2023-02-08T03:51:07;73554.47;;;-146.40;66.01
13033;BME280;6583;42.632;23.298;2023-02-08T03:53:36;73554.47;;;-146.40;65.16
13033;BME280;6583;42.632;23.298;2023-02-08T03:56:14;73576.75;;;-146.40;65.61
13033;BME280;6583;42.632;23.298;2023-02-08T03:58:46;73574.72;;;-146.40;66.21
13033;BME280;6583;42.632;23.298;2023-02-08T04:01:17;73578.75;;;-146.40;67.34
13033;BME280;6583;42.632;23.298;2023-02-08T04:03:46;73588.88;;;-146.40;67.50
13033;BME280;6583;42.632;23.298;2023-02-08T04:06:16;73590.91;;;-146.40;68.02
13033;BME280;6583;42.632;23.298;2023-02-08T04:08:43;73590.91;;;-146.40;67.77
13033;BME280;6583;42.632;23.298;2023-02-08T04:11:09;73597.00;;;-146.40;67.68
13033;BME280;6583;42.632;23.298;2023-02-08T04:13:36;73594.97;;;-146.40;68.07
13033;BME280;6583;42.632;23.298;2023-02-08T04:16:03;73601.03;;;-146.40;68.48
13033;BME280;6583;42.632;23.298;2023-02-08T04:18:30;73605.09;;;-146.40;68.47
13033;BME280;6583;42.632;23.298;2023-02-08T04:20:56;73605.09;;;-146.40;69.56
13033;BME280;6583;42.632;23.298;2023-02-08T04:23:24;73619.25;;;-146.40;69.98
13033;BME280;6583;42.632;23.298;2023-02-08T04:25:51;73631.41;;;-146.40;70.54
13033;BME280;6583;42.632;23.298;2023-02-08T04:28:17;73609.13;;;-146.40;71.18
13033;BME280;6583;42.632;23.298;2023-02-08T04:30:44;73615.22;;;-146.40;71.43
13033;BME280;6583;42.632;23.298;2023-02-08T04:33:11;73627.38;;;-146.40;71.44
13033;BME280;6583;42.632;23.298;2023-02-08T04:35:39;73619.25;;;-146.40;71.52
13033;BME280;6583;42.632;23.298;2023-02-08T04:38:06;73611.16;;;-146.40;71.31
13033;BME280;6583;42.632;23.298;2023-02-08T04:40:34;73617.25;;;-146.40;71.65
13033;BME280;6583;42.632;23.298;2023-02-08T04:43:00;73619.25;;;-146.40;71.46
13033;BME280;6583;42.632;23.298;2023-02-08T04:45:27;73613.19;;;-146.40;71.44
13033;BME280;6583;42.632;23.298;2023-02-08T04:47:56;73603.06;;;-146.40;71.51
13033;BME280;6583;42.632;23.298;2023-02-08T04:50:23;73613.19;;;-146.40;71.42
13033;BME280;6583;42.632;23.298;2023-02-08T04:52:50;73601.03;;;-146.40;71.69
13033;BME280;6583;42.632;23.298;2023-02-08T04:55:17;73599.00;;;-146.40;70.96
13033;BME280;6583;42.632;23.298;2023-02-08T04:57:45;73592.94;;;-146.40;70.91
13033;BME280;6583;42.632;23.298;2023-02-08T05:00:12;73617.25;;;-146.40;69.59
13033;BME280;6583;42.632;23.298;2023-02-08T05:02:39;73621.28;;;-146.40;69.48
13033;BME280;6583;42.632;23.298;2023-02-08T05:05:06;73627.38;;;-146.40;69.98
13033;BME280;6583;42.632;23.298;2023-02-08T05:07:32;73625.34;;;-146.40;70.73
13033;BME280;6583;42.632;23.298;2023-02-08T05:09:59;73635.47;;;-146.40;69.11
13033;BME280;6583;42.632;23.298;2023-02-08T05:12:26;73643.56;;;-146.40;69.00
13033;BME280;6583;42.632;23.298;2023-02-08T05:14:54;73637.50;;;-146.40;69.53
13033;BME280;6583;42.632;23.298;2023-02-08T05:17:20;73627.38;;;-146.40;69.29
13033;BME280;6583;42.632;23.298;2023-02-08T05:19:47;73627.38;;;-146.40;68.80
13033;BME280;6583;42.632;23.298;2023-02-08T05:22:14;73623.31;;;-146.40;68.57
13033;BME280;6583;42.632;23.298;2023-02-08T05:24:41;73623.31;;;-146.40;68.99
13033;BME280;6583;42.632;23.298;2023-02-08T05:27:07;73627.38;;;-146.40;68.56
13033;BME280;6583;42.632;23.298;2023-02-08T05:29:34;73635.47;;;-146.40;69.46
13033;BME280;6583;42.632;23.298;2023-02-08T05:32:02;73627.38;;;-146.40;69.68
13033;BME280;6583;42.632;23.298;2023-02-08T05:34:29;73623.31;;;-146.40;69.32
13033;BME280;6583;42.632;23.298;2023-02-08T05:36:56;73619.25;;;-146.40;69.10
13033;BME280;6583;42.632;23.298;2023-02-08T05:39:22;73615.22;;;-146.40;70.43
13033;BME280;6583;42.632;23.298;2023-02-08T05:41:49;73597.00;;;-146.40;71.34
13033;BME280;6583;42.632;23.298;2023-02-08T05:44:15;73594.97;;;-146.40;70.67
13033;BME280;6583;42.632;23.298;2023-02-08T05:46:42;73588.88;;;-146.40;70.64
13033;BME280;6583;42.632;23.298;2023-02-08T05:49:10;73574.72;;;-146.40;69.82
13033;BME280;6583;42.632;23.298;2023-02-08T05:51:37;73564.59;;;-146.40;69.26
13033;BME280;6583;42.632;23.298;2023-02-08T05:54:03;73550.41;;;-146.40;68.22
13033;BME280;6583;42.632;23.298;2023-02-08T05:56:30;73548.38;;;-146.40;67.26
13033;BME280;6583;42.632;23.298;2023-02-08T05:58:59;73534.22;;;-146.40;67.32
13033;BME280;6583;42.632;23.298;2023-02-08T06:01:26;73530.16;;;-146.40;66.94
13033;BME280;6583;42.632;23.298;2023-02-08T06:03:52;73522.06;;;-146.40;67.06
13033;BME280;6583;42.632;23.298;2023-02-08T06:06:21;73507.88;;;-146.40;66.19
13033;BME280;6583;42.632;23.298;2023-02-08T06:08:47;73499.78;;;-146.40;64.06
13033;BME280;6583;42.632;23.298;2023-02-08T06:11:14;73509.91;;;-146.40;61.55
13033;BME280;6583;42.632;23.298;2023-02-08T06:13:41;73524.09;;;-146.40;61.71
13033;BME280;6583;42.632;23.298;2023-02-08T06:16:07;73538.25;;;-146.40;62.70
13033;BME280;6583;42.632;23.298;2023-02-08T06:18:34;73536.25;;;-146.40;63.81
13033;BME280;6583;42.632;23.298;2023-02-08T06:21:01;73534.22;;;-146.40;63.44
13033;BME280;6583;42.632;23.298;2023-02-08T06:23:29;73522.06;;;-146.40;63.97
13033;BME280;6583;42.632;23.298;2023-02-08T06:25:56;73505.88;;;-146.40;64.12
13033;BME280;6583;42.632;23.298;2023-02-08T06:28:23;73505.88;;;-146.40;63.67
13033;BME280;6583;42.632;23.298;2023-02-08T06:30:50;73489.66;;;-146.40;63.23
13033;BME280;6583;42.632;23.298;2023-02-08T06:33:17;73479.53;;;-146.40;62.41
13033;BME280;6583;42.632;23.298;2023-02-08T06:35:44;73467.38;;;-146.40;61.10
13033;BME280;6583;42.632;23.298;2023-02-08T06:38:11;73459.28;;;-146.40;61.22
13033;BME280;6583;42.632;23.298;2023-02-08T06:40:39;73453.22;;;-146.40;59.63
13033;BME280;6583;42.632;23.298;2023-02-08T06:43:06;73453.22;;;-146.40;59.31
13033;BME280;6583;42.632;23.298;2023-02-08T06:45:33;73451.19;;;-146.40;59.16
13033;BME280;6583;42.632;23.298;2023-02-08T06:47:59;73441.06;;;-146.40;58.73
13033;BME280;6583;42.632;23.298;2023-02-08T06:50:26;73449.16;;;-146.40;58.62
13033;BME280;6583;42.632;23.298;2023-02-08T06:52:53;73445.13;;;-146.40;59.34
13033;BME280;6583;42.632;23.298;2023-02-08T06:55:19;73453.22;;;-146.40;58.84
13033;BME280;6583;42.632;23.298;2023-02-08T06:57:47;73455.25;;;-146.40;58.90
13033;BME280;6583;42.632;23.298;2023-02-08T07:00:14;73465.38;;;-146.40;58.25
13033;BME280;6583;42.632;23.298;2023-02-08T07:02:41;73495.75;;;-146.40;58.13
13033;BME280;6583;42.632;23.298;2023-02-08T07:05:08;73501.81;;;-146.40;59.53
13033;BME280;6583;42.632;23.298;2023-02-08T07:07:34;73505.88;;;-146.40;59.32
13033;BME280;6583;42.632;23.298;2023-02-08T07:10:01;73513.97;;;-146.40;59.92
13033;BME280;6583;42.632;23.298;2023-02-08T07:12:27;73501.81;;;-146.40;60.01
13033;BME280;6583;42.632;23.298;2023-02-08T07:14:55;73489.66;;;-146.40;60.19
13033;BME280;6583;42.632;23.298;2023-02-08T07:17:22;73493.72;;;-146.40;60.24
13033;BME280;6583;42.632;23.298;2023-02-08T07:19:49;73491.69;;;-146.40;60.18
13033;BME280;6583;42.632;23.298;2023-02-08T07:22:16;73493.72;;;-146.40;58.83
13033;BME280;6583;42.632;23.298;2023-02-08T07:24:42;73493.72;;;-146.40;58.65
13033;BME280;6583;42.632;23.298;2023-02-08T07:27:10;73489.66;;;-146.40;58.38
13033;BME280;6583;42.632;23.298;2023-02-08T07:29:38;73489.66;;;-146.40;57.50
13033;BME280;6583;42.632;23.298;2023-02-08T07:32:07;73505.88;;;-146.40;57.42
13033;BME280;6583;42.632;23.298;2023-02-08T07:34:35;73499.78;;;-146.40;57.30
13033;BME280;6583;42.632;23.298;2023-02-08T07:37:02;73497.75;;;-146.40;56.85
13033;BME280;6583;42.632;23.298;2023-02-08T07:39:29;73497.75;;;-146.40;57.10
13033;BME280;6583;42.632;23.298;2023-02-08T07:41:56;73499.78;;;-146.40;57.50
13033;BME280;6583;42.632;23.298;2023-02-08T07:44:23;73493.72;;;-146.40;58.27
13033;BME280;6583;42.632;23.298;2023-02-08T07:46:49;73503.84;;;-146.40;58.16
13033;BME280;6583;42.632;23.298;2023-02-08T07:49:18;73501.81;;;-146.40;58.93
13033;BME280;6583;42.632;23.298;2023-02-08T07:51:44;73485.63;;;-146.40;58.36
13033;BME280;6583;42.632;23.298;2023-02-08T07:54:11;73483.59;;;-146.40;58.42
13033;BME280;6583;42.632;23.298;2023-02-08T07:56:37;73491.69;;;-146.40;57.57
13033;BME280;6583;42.632;23.298;2023-02-08T07:59:04;73497.75;;;-146.40;58.85
13033;BME280;6583;42.632;23.298;2023-02-08T08:01:31;73483.59;;;-146.40;58.88
13033;BME280;6583;42.632;23.298;2023-02-08T08:03:57;73485.63;;;-146.40;57.90
13033;BME280;6583;42.632;23.298;2023-02-08T08:06:26;73513.97;;;-146.40;57.11
13033;BME280;6583;42.632;23.298;2023-02-08T08:08:52;73534.22;;;-146.40;57.60
13033;BME280;6583;42.632;23.298;2023-02-08T08:11:20;73526.13;;;-146.40;58.36
13033;BME280;6583;42.632;23.298;2023-02-08T08:13:46;73505.88;;;-146.40;58.55
13033;BME280;6583;42.632;23.298;2023-02-08T08:16:13;73489.66;;;-146.40;57.96
13033;BME280;6583;42.632;23.298;2023-02-08T08:18:40;73513.97;;;-146.40;57.32
13033;BME280;6583;42.632;23.298;2023-02-08T08:21:07;73487.63;;;-146.40;57.90
13033;BME280;6583;42.632;23.298;2023-02-08T08:23:35;73461.31;;;-146.40;58.24
13033;BME280;6583;42.632;23.298;2023-02-08T08:26:05;73481.56;;;-146.40;56.09
13033;BME280;6583;42.632;23.298;2023-02-08T08:28:32;73467.38;;;-146.40;53.06
13033;BME280;6583;42.632;23.298;2023-02-08T08:30:59;73469.41;;;-146.40;52.57
13033;BME280;6583;42.632;23.298;2023-02-08T08:33:26;73453.22;;;-146.40;50.58
13033;BME280;6583;42.632;23.298;2023-02-08T08:35:52;73457.25;;;-146.40;49.98
13033;BME280;6583;42.632;23.298;2023-02-08T08:38:19;73465.38;;;-146.40;49.51
13033;BME280;6583;42.632;23.298;2023-02-08T08:40:47;73445.13;;;-146.40;49.99
13033;BME280;6583;42.632;23.298;2023-02-08T08:43:13;73437.00;;;-146.40;49.21
13033;BME280;6583;42.632;23.298;2023-02-08T08:45:40;73428.91;;;-146.40;48.38
13033;BME280;6583;42.632;23.298;2023-02-08T08:48:07;73445.13;;;-146.40;46.13
13033;BME280;6583;42.632;23.298;2023-02-08T08:50:33;73424.88;;;-146.40;46.40
13033;BME280;6583;42.632;23.298;2023-02-08T08:53:00;73410.69;;;-146.40;45.95
13033;BME280;6583;42.632;23.298;2023-02-08T08:55:27;73420.81;;;-146.40;45.95
13033;BME280;6583;42.632;23.298;2023-02-08T08:57:55;73463.34;;;-146.40;47.65
13033;BME280;6583;42.632;23.298;2023-02-08T09:00:21;73437.00;;;-146.40;47.19
13033;BME280;6583;42.632;23.298;2023-02-08T09:02:48;73461.31;;;-146.40;47.10
13033;BME280;6583;42.632;23.298;2023-02-08T09:05:15;73461.31;;;-146.40;48.51
13033;BME280;6583;42.632;23.298;2023-02-08T09:07:42;73467.38;;;-146.40;48.33
13033;BME280;6583;42.632;23.298;2023-02-08T09:10:08;73461.31;;;-146.40;49.73
13033;BME280;6583;42.632;23.298;2023-02-08T09:12:35;73455.25;;;-146.40;50.53
13033;BME280;6583;42.632;23.298;2023-02-08T09:15:06;73459.28;;;-146.40;50.36
13033;BME280;6583;42.632;23.298;2023-02-08T09:17:34;73481.56;;;-146.40;51.69
13033;BME280;6583;42.632;23.298;2023-02-08T09:20:00;73479.53;;;-146.40;52.01
13033;BME280;6583;42.632;23.298;2023-02-08T09:22:28;73485.63;;;-146.40;52.17
13033;BME280;6583;42.632;23.298;2023-02-08T09:24:55;73487.63;;;-146.40;52.46
13033;BME280;6583;42.632;23.298;2023-02-08T09:27:21;73501.81;;;-146.40;52.13
13033;BME280;6583;42.632;23.298;2023-02-08T09:29:48;73491.69;;;-146.40;53.39
13033;BME280;6583;42.632;23.298;2023-02-08T09:32:16;73532.19;;;-146.40;53.46
13033;BME280;6583;42.632;23.298;2023-02-08T09:34:43;73536.25;;;-146.40;54.32
13033;BME280;6583;42.632;23.298;2023-02-08T09:37:09;73542.31;;;-146.40;53.66
13033;BME280;6583;42.632;23.298;2023-02-08T09:39:36;73550.41;;;-146.40;54.42
13033;BME280;6583;42.632;23.298;2023-02-08T09:42:20;73554.47;;;-146.40;53.69
13033;BME280;6583;42.632;23.298;2023-02-08T09:45:16;73526.13;;;-146.40;53.58
13033;BME280;6583;42.632;23.298;2023-02-08T09:47:53;73542.31;;;-146.40;54.03
13033;BME280;6583;42.632;23.298;2023-02-08T09:50:28;73534.22;;;-146.40;54.41
13033;BME280;6583;42.632;23.298;2023-02-08T09:53:05;73524.09;;;-146.40;53.72
13033;BME280;6583;42.632;23.298;2023-02-08T09:55:37;73540.28;;;-146.40;54.48
13033;BME280;6583;42.632;23.298;2023-02-08T10:22:05;73364.13;;;-146.40;48.18
13033;BME280;6583;42.632;23.298;2023-02-08T10:24:50;73364.13;;;-146.40;50.25
13033;BME280;6583;42.632;23.298;2023-02-08T10:27:23;73349.94;;;-146.40;51.98
13033;BME280;6583;42.632;23.298;2023-02-08T10:30:16;73331.72;;;-146.40;51.50
13033;BME280;6583;42.632;23.298;2023-02-08T10:32:51;73323.63;;;-146.40;50.06
13033;BME280;6583;42.632;23.298;2023-02-08T10:35:24;73339.81;;;-146.40;48.51
13033;BME280;6583;42.632;23.298;2023-02-08T10:37:54;73374.25;;;-146.40;48.89
13033;BME280;6583;42.632;23.298;2023-02-08T10:40:28;73388.41;;;-146.40;47.45
13033;BME280;6583;42.632;23.298;2023-02-08T10:43:02;73398.53;;;-146.40;48.15
13033;BME280;6583;42.632;23.298;2023-02-08T10:45:35;73412.72;;;-146.40;50.35
13033;BME280;6583;42.632;23.298;2023-02-08T10:48:11;73394.50;;;-146.40;49.49
13033;BME280;6583;42.632;23.298;2023-02-08T10:50:43;73372.22;;;-146.40;47.82
13033;BME280;6583;42.632;23.298;2023-02-08T10:53:14;73339.81;;;-146.40;50.97
13033;BME280;6583;42.632;23.298;2023-02-08T11:15:26;73321.59;;;-146.40;43.88
13033;BME280;6583;42.632;23.298;2023-02-08T11:17:57;73315.53;;;-146.40;45.08
13033;BME280;6583;42.632;23.298;2023-02-08T11:20:30;73289.19;;;-146.40;44.23
13033;BME280;6583;42.632;23.298;2023-02-08T11:22:58;73279.06;;;-146.40;42.87
13033;BME280;6583;42.632;23.298;2023-02-08T11:25:34;73287.19;;;-146.40;43.19
13033;BME280;6583;42.632;23.298;2023-02-08T11:28:01;73327.66;;;-146.40;43.11
13033;BME280;6583;42.632;23.298;2023-02-08T11:30:30;73335.78;;;-146.40;43.99
13033;BME280;6583;42.632;23.298;2023-02-08T11:33:15;73372.22;;;-146.40;44.80
13033;BME280;6583;42.632;23.298;2023-02-08T11:35:52;73404.63;;;-146.40;45.95
13033;BME280;6583;42.632;23.298;2023-02-08T11:38:20;73408.66;;;-146.40;44.97
13033;BME280;6583;42.632;23.298;2023-02-08T11:40:52;73439.03;;;-146.40;45.63
13033;BME280;6583;42.632;23.298;2023-02-08T11:43:21;73435.00;;;-146.40;46.31
13033;BME280;6583;42.632;23.298;2023-02-08T11:45:50;73424.88;;;-146.40;51.02
13033;BME280;6583;42.632;23.298;2023-02-08T11:48:23;73445.13;;;-146.40;52.43
13033;BME280;6583;42.632;23.298;2023-02-08T11:50:56;73432.97;;;-146.40;53.19
13033;BME280;6583;42.632;23.298;2023-02-08T11:53:26;73420.81;;;-146.40;53.70
13033;BME280;6583;42.632;23.298;2023-02-08T11:56:01;73402.59;;;-146.40;53.37
13033;BME280;6583;42.632;23.298;2023-02-08T11:58:29;73396.50;;;-146.40;52.22
13033;BME280;6583;42.632;23.298;2023-02-08T12:00:59;73386.41;;;-146.40;53.72
13033;BME280;6583;42.632;23.298;2023-02-08T12:03:29;73370.19;;;-146.40;53.80
13033;BME280;6583;42.632;23.298;2023-02-08T12:06:17;73378.28;;;-146.40;50.66
13033;BME280;6583;42.632;23.298;2023-02-08T12:08:54;73384.38;;;-146.40;52.87
13033;BME280;6583;42.632;23.298;2023-02-08T12:11:28;73386.41;;;-146.40;52.16
13033;BME280;6583;42.632;23.298;2023-02-08T12:14:12;73374.25;;;-146.40;53.53
13033;BME280;6583;42.632;23.298;2023-02-08T12:17:05;73370.19;;;-146.40;52.38
13033;BME280;6583;42.632;23.298;2023-02-08T12:19:58;73374.25;;;-146.40;51.70
13033;BME280;6583;42.632;23.298;2023-02-08T12:22:28;73378.28;;;-146.40;52.66
13033;BME280;6583;42.632;23.298;2023-02-08T12:25:05;73382.34;;;-146.40;52.09
13033;BME280;6583;42.632;23.298;2023-02-08T12:27:42;73388.41;;;-146.40;52.89
13033;BME280;6583;42.632;23.298;2023-02-08T12:30:19;73386.41;;;-146.40;53.58
13033;BME280;6583;42.632;23.298;2023-02-08T12:33:05;73384.38;;;-146.40;52.59
13033;BME280;6583;42.632;23.298;2023-02-08T12:35:48;73374.25;;;-146.40;52.55
13033;BME280;6583;42.632;23.298;2023-02-08T12:38:25;73392.47;;;-146.40;52.42
13033;BME280;6583;42.632;23.298;2023-02-08T12:41:20;73396.50;;;-146.40;52.21
13033;BME280;6583;42.632;23.298;2023-02-08T12:43:52;73396.50;;;-146.40;51.58
13033;BME280;6583;42.632;23.298;2023-02-08T12:46:37;73400.56;;;-146.40;51.39
13033;BME280;6583;42.632;23.298;2023-02-08T12:49:27;73388.41;;;-146.40;51.46
13033;BME280;6583;42.632;23.298;2023-02-08T12:52:03;73390.44;;;-146.40;50.19
13033;BME280;6583;42.632;23.298;2023-02-08T12:54:34;73386.41;;;-146.40;49.56
13033;BME280;6583;42.632;23.298;2023-02-08T12:57:04;73388.41;;;-146.40;49.56
13033;BME280;6583;42.632;23.298;2023-02-08T12:59:35;73400.56;;;-146.40;48.67
13033;BME280;6583;42.632;23.298;2023-02-08T13:02:12;73416.75;;;-146.40;48.94
13033;BME280;6583;42.632;23.298;2023-02-08T13:04:44;73420.81;;;-146.40;48.94
13033;BME280;6583;42.632;23.298;2023-02-08T13:07:15;73414.75;;;-146.40;50.43
13033;BME280;6583;42.632;23.298;2023-02-08T13:09:48;73430.94;;;-146.40;48.54
13033;BME280;6583;42.632;23.298;2023-02-08T13:12:19;73432.97;;;-146.40;49.56
13033;BME280;6583;42.632;23.298;2023-02-08T13:14:50;73422.84;;;-146.40;48.54
13033;BME280;6583;42.632;23.298;2023-02-08T13:17:23;73418.78;;;-146.40;49.11
13033;BME280;6583;42.632;23.298;2023-02-08T13:19:55;73414.75;;;-146.40;48.40
13033;BME280;6583;42.632;23.298;2023-02-08T13:22:24;73408.66;;;-146.40;48.77
13033;BME280;6583;42.632;23.298;2023-02-08T13:24:51;73408.66;;;-146.40;48.04
13033;BME280;6583;42.632;23.298;2023-02-08T13:27:21;73408.66;;;-146.40;47.57
13033;BME280;6583;42.632;23.298;2023-02-08T13:29:49;73406.63;;;-146.40;47.74
13033;BME280;6583;42.632;23.298;2023-02-08T13:32:22;73400.56;;;-146.40;48.40
13033;BME280;6583;42.632;23.298;2023-02-08T13:34:57;73408.66;;;-146.40;45.67
13033;BME280;6583;42.632;23.298;2023-02-08T13:37:28;73404.63;;;-146.40;47.81
13033;BME280;6583;42.632;23.298;2023-02-08T13:40:02;73394.50;;;-146.40;48.16
13033;BME280;6583;42.632;23.298;2023-02-08T13:42:34;73390.44;;;-146.40;46.80
13033;BME280;6583;42.632;23.298;2023-02-08T13:45:03;73398.53;;;-146.40;46.58